Time;durP1;ratioP1;P1;durP2;ratioP2;P2;SDS_P1;SDS_P2;PMS_P1;PMS_P2;Temp;Humidity;BMP_temperature;BMP_pressure;BME280_temperature;BME280_humidity;BME280_pressure;Samples;Min_cycle;Max_cycle;Signal;HPM_P1;HPM_P2
2021/12/16 00:09:46;;;;;;;13.70;7.10;;;;;;;-0.23;84.72;95565.75;4995533;28;20211;-71
2021/12/16 00:29:31;;;;;;;13.18;6.68;;;;;;;-0.20;83.25;95575.91;5005720;28;20259;-72
2021/12/16 00:32:04;;;;;;;11.68;6.28;;;;;;;-0.18;83.01;95592.47;5030494;28;20199;-73
2021/12/16 00:34:33;;;;;;;6.40;2.83;;;;;;;-0.13;82.54;95587.22;5030832;28;20204;-71
2021/12/16 00:37:01;;;;;;;17.98;6.10;;;;;;;-0.29;83.22;95580.00;5030681;28;20204;-72
2021/12/16 00:39:32;;;;;;;13.75;8.43;;;;;;;-0.20;83.17;95578.59;5026392;28;20665;-71
2021/12/16 00:42:04;;;;;;;9.88;5.32;;;;;;;-0.20;82.63;95589.22;5017152;28;20235;-71
2021/12/16 00:45:07;;;;;;;11.15;5.35;;;;;;;-0.25;82.86;95585.66;5030031;28;20200;-73
2021/12/16 00:47:47;;;;;;;13.18;7.32;;;;;;;-0.24;82.92;95581.94;5030612;28;20216;-71
2021/12/16 00:54:07;;;;;;;10.43;5.00;;;;;;;-0.25;82.90;95585.66;5030482;28;20192;-71
2021/12/16 00:56:00;;;;;;;11.57;5.07;;;;;;;-0.21;82.96;95592.13;5029961;28;20211;-71
2021/12/16 00:58:33;;;;;;;13.77;4.95;;;;;;;-0.27;82.71;95582.44;5030111;28;20259;-71
2021/12/16 01:01:07;;;;;;;8.77;4.45;;;;;;;-0.22;82.88;95574.53;5030400;28;20228;-72
2021/12/16 01:03:41;;;;;;;8.60;4.90;;;;;;;-0.11;82.01;95577.16;5030732;28;20242;-73
2021/12/16 01:06:28;;;;;;;17.55;5.95;;;;;;;-0.19;82.00;95574.88;5030653;28;20188;-72
2021/12/16 01:34:06;;;;;;;11.50;4.47;;;;;;;-0.17;81.95;95562.16;5020456;28;20674;-71
2021/12/16 01:36:59;;;;;;;11.07;4.93;;;;;;;-0.25;82.38;95554.50;5024111;28;20287;-71
2021/12/16 01:45:40;;;;;;;12.05;5.45;;;;;;;-0.39;83.72;95548.66;5008880;28;20211;-71
2021/12/16 01:48:48;;;;;;;13.40;6.40;;;;;;;-0.45;83.70;95554.13;5032927;28;20281;-71
2021/12/16 01:51:16;;;;;;;12.73;5.68;;;;;;;-0.52;83.65;95546.28;5033182;28;20642;-71
2021/12/16 01:54:16;;;;;;;11.65;5.05;;;;;;;-0.44;83.62;95534.47;5033501;28;20192;-71
2021/12/16 01:56:47;;;;;;;11.95;5.90;;;;;;;-0.52;83.84;95543.59;5009008;28;20215;-71
2021/12/16 01:59:19;;;;;;;10.02;5.28;;;;;;;-0.50;83.78;95540.72;5033256;28;20286;-71
2021/12/16 02:01:48;;;;;;;10.10;3.78;;;;;;;-0.47;83.35;95540.25;5032981;28;20225;-71
2021/12/16 02:04:23;;;;;;;10.82;5.57;;;;;;;-0.45;83.54;95538.16;5033608;28;20315;-72
2021/12/16 02:07:05;;;;;;;9.20;5.57;;;;;;;-0.41;83.21;95539.31;5033298;28;20557;-71
2021/12/16 02:09:36;;;;;;;20.77;9.43;;;;;;;-0.33;83.40;95546.91;4993654;28;20578;-69
2021/12/16 02:12:12;;;;;;;15.27;7.05;;;;;;;-0.27;83.22;95540.63;5020555;28;20602;-71
2021/12/16 02:28:42;;;;;;;9.05;3.30;;;;;;;-0.01;81.88;95529.44;5032830;28;20674;-73
2021/12/16 02:31:24;;;;;;;10.57;4.05;;;;;;;0.03;81.63;95539.59;5021563;28;20205;-71
2021/12/16 02:34:18;;;;;;;9.27;4.65;;;;;;;0.02;82.11;95545.94;5032983;28;20204;-71
2021/12/16 02:36:44;;;;;;;8.50;5.13;;;;;;;-0.03;82.08;95536.03;5032372;28;20200;-72
2021/12/16 02:39:15;;;;;;;6.85;3.45;;;;;;;0.02;82.31;95543.28;5031050;28;20200;-71
2021/12/16 02:41:45;;;;;;;7.10;3.20;;;;;;;0.02;82.38;95543.28;5017301;28;20658;-72
2021/12/16 02:44:26;;;;;;;11.60;4.78;;;;;;;0.00;82.34;95540.91;5032537;28;20215;-72
2021/12/16 02:49:47;;;;;;;9.27;4.03;;;;;;;0.04;82.56;95546.53;5014806;28;20290;-71
2021/12/16 02:52:19;;;;;;;9.93;4.15;;;;;;;0.09;82.31;95538.63;5032467;28;20243;-71
2021/12/16 02:54:47;;;;;;;10.00;5.28;;;;;;;0.08;82.40;95542.34;5032038;28;20192;-70
2021/12/16 02:57:15;;;;;;;10.25;4.05;;;;;;;0.15;81.96;95543.81;5032300;28;20215;-71
2021/12/16 02:59:44;;;;;;;11.02;4.68;;;;;;;0.14;81.91;95541.38;5031934;28;20204;-71
2021/12/16 03:02:16;;;;;;;9.75;4.32;;;;;;;0.16;81.52;95545.41;5032337;28;20291;-73
2021/12/16 03:04:46;;;;;;;13.50;4.95;;;;;;;0.16;81.83;95544.59;5007203;28;20683;-71
2021/12/16 03:07:16;;;;;;;12.90;5.43;;;;;;;0.19;81.84;95541.47;5018952;28;20208;-71
2021/12/16 03:12:52;;;;;;;9.20;4.50;;;;;;;0.29;81.25;95538.97;5030868;28;20561;-72
2021/12/16 03:15:33;;;;;;;6.10;3.20;;;;;;;0.37;81.15;95533.28;5031772;28;20221;-70
2021/12/16 03:18:08;;;;;;;7.22;4.25;;;;;;;0.37;80.87;95543.94;5031823;28;20560;-70
2021/12/16 03:20:41;;;;;;;5.68;3.25;;;;;;;0.37;81.12;95540.47;5031069;28;20196;-70
2021/12/16 03:23:27;;;;;;;12.77;5.00;;;;;;;0.39;81.85;95544.50;5031734;28;20993;-71
2021/12/16 03:26:10;;;;;;;9.48;5.20;;;;;;;0.41;81.48;95546.94;5000336;28;20201;-71
2021/12/16 03:31:42;;;;;;;12.77;5.40;;;;;;;0.40;81.63;95550.63;5009603;28;20211;-71
2021/12/16 03:34:24;;;;;;;10.63;5.30;;;;;;;0.44;81.34;95552.56;5009329;28;20204;-71
2021/12/16 03:37:14;;;;;;;5.63;3.30;;;;;;;0.41;81.28;95553.03;5031100;28;20291;-71
2021/12/16 03:39:46;;;;;;;12.02;4.45;;;;;;;0.42;81.29;95544.00;5025460;28;20548;-72
2021/12/16 03:42:14;;;;;;;6.53;3.17;;;;;;;0.52;81.16;95548.72;5020550;28;20197;-70
2021/12/16 03:44:56;;;;;;;9.70;5.15;;;;;;;0.55;81.32;95559.66;5030924;28;20270;-71
2021/12/16 03:47:33;;;;;;;5.30;3.17;;;;;;;0.63;80.81;95545.16;5030620;28;20287;-70
2021/12/16 03:50:04;;;;;;;10.30;4.68;;;;;;;0.53;81.14;95556.47;5011916;28;20271;-71
2021/12/16 03:52:31;;;;;;;13.23;5.03;;;;;;;0.50;81.02;95545.47;5024316;28;20204;-73
2021/12/16 03:55:00;;;;;;;6.38;3.70;;;;;;;0.54;81.01;95552.75;5024123;28;20674;-72
2021/12/16 03:57:30;;;;;;;11.98;6.40;;;;;;;0.50;81.35;95551.59;5025146;28;20227;-71
2021/12/16 03:59:57;;;;;;;12.05;5.40;;;;;;;0.51;80.96;95547.91;5031333;28;20226;-71
2021/12/16 04:02:27;;;;;;;10.10;4.38;;;;;;;0.51;81.33;95534.56;5030341;28;20667;-71
2021/12/16 04:04:54;;;;;;;7.82;3.35;;;;;;;0.64;81.03;95550.25;5031108;28;20213;-71
2021/12/16 04:07:23;;;;;;;9.85;4.38;;;;;;;0.62;81.10;95549.66;5028858;28;20207;-70
2021/12/16 04:09:51;;;;;;;11.75;6.07;;;;;;;0.57;81.15;95538.91;5020771;28;20232;-71
2021/12/16 04:12:23;;;;;;;12.05;4.03;;;;;;;0.63;81.23;95539.81;5030305;28;20204;-70
2021/12/16 04:14:54;;;;;;;12.10;5.10;;;;;;;0.68;81.15;95532.69;5031195;28;20188;-71
2021/12/16 04:17:24;;;;;;;9.32;4.82;;;;;;;0.67;81.04;95538.28;5031219;28;20254;-71
2021/12/16 04:19:51;;;;;;;9.55;4.72;;;;;;;0.64;81.29;95536.91;5019367;28;20258;-72
2021/12/16 04:22:27;;;;;;;7.18;3.72;;;;;;;0.52;81.48;95528.19;5029629;28;20717;-71
2021/12/16 04:24:56;;;;;;;8.95;4.07;;;;;;;0.69;81.53;95536.97;5032086;28;20654;-71
2021/12/16 04:27:27;;;;;;;8.20;4.55;;;;;;;0.68;81.07;95535.34;5004682;28;20208;-71
2021/12/16 04:29:57;;;;;;;8.75;4.82;;;;;;;0.67;81.47;95523.09;5020708;28;20243;-71
2021/12/16 04:32:25;;;;;;;13.30;4.95;;;;;;;0.73;81.46;95533.81;5030542;28;20196;-72
2021/12/16 04:34:53;;;;;;;7.20;3.70;;;;;;;0.85;80.92;95526.53;5030902;28;20208;-71
2021/12/16 04:37:20;;;;;;;9.25;4.55;;;;;;;0.79;80.93;95525.69;5030630;28;20258;-71
2021/12/16 04:39:48;;;;;;;6.93;4.25;;;;;;;0.81;81.23;95522.78;5023972;28;20204;-71
2021/12/16 04:42:20;;;;;;;8.95;3.75;;;;;;;0.86;80.70;95522.81;5019948;28;20282;-71
2021/12/16 04:44:48;;;;;;;8.35;3.38;;;;;;;0.77;80.70;95514.44;5030574;28;20196;-72
2021/12/16 04:47:16;;;;;;;7.22;4.38;;;;;;;0.76;81.11;95517.34;5030232;28;20200;-73
2021/12/16 04:49:44;;;;;;;8.80;4.47;;;;;;;0.72;81.53;95522.34;5034461;28;20227;-70
2021/12/16 04:52:14;;;;;;;11.77;5.38;;;;;;;0.76;81.54;95523.50;5034460;28;20216;-70
2021/12/16 04:54:42;;;;;;;7.82;3.63;;;;;;;0.79;81.49;95527.53;5033573;28;20762;-70
2021/12/16 04:57:10;;;;;;;10.10;4.88;;;;;;;0.76;81.74;95520.00;5027464;28;20201;-72
2021/12/16 04:59:38;;;;;;;13.13;5.50;;;;;;;0.78;81.55;95523.25;5021684;28;20285;-70
2021/12/16 05:02:10;;;;;;;8.43;3.85;;;;;;;0.78;81.66;95531.25;5034114;28;20254;-71
2021/12/16 05:04:38;;;;;;;12.10;5.43;;;;;;;0.76;81.76;95528.00;5008101;28;20272;-71
2021/12/16 05:07:07;;;;;;;11.80;5.57;;;;;;;0.73;82.22;95531.16;5034334;28;20258;-70
2021/12/16 05:12:22;;;;;;;10.50;5.55;;;;;;;0.76;82.03;95523.50;5034059;28;20341;-70
2021/12/16 05:14:51;;;;;;;9.68;5.10;;;;;;;0.73;82.91;95517.81;5034274;28;20230;-71
2021/12/16 05:17:28;;;;;;;7.20;3.53;;;;;;;0.80;82.48;95518.47;5033171;28;20204;-70
2021/12/16 05:19:59;;;;;;;7.25;3.90;;;;;;;0.75;82.89;95521.06;5032614;28;20558;-70
2021/12/16 05:25:22;;;;;;;9.68;5.30;;;;;;;0.64;83.27;95518.25;4994412;28;20342;-71
2021/12/16 05:27:49;;;;;;;9.27;5.13;;;;;;;0.39;83.46;95501.88;5034434;28;20268;-71
2021/12/16 05:30:17;;;;;;;8.45;4.45;;;;;;;0.48;84.30;95521.72;5028675;28;20232;-72
2021/12/16 05:32:46;;;;;;;10.20;5.30;;;;;;;0.47;84.27;95525.44;5025911;28;20204;-76
2021/12/16 05:35:16;;;;;;;20.52;5.82;;;;;;;0.35;84.32;95506.06;5027701;28;20196;-72
2021/12/16 05:37:45;;;;;;;9.80;5.78;;;;;;;0.99;86.71;95517.16;5033544;28;20243;-70
2021/12/16 05:40:14;;;;;;;10.50;5.13;;;;;;;1.06;83.28;95512.47;5013135;28;20236;-70
2021/12/16 05:42:41;;;;;;;12.65;6.25;;;;;;;1.89;90.02;95514.00;5003974;28;20197;-70
2021/12/16 05:45:10;;;;;;;11.05;5.97;;;;;;;1.53;82.87;95525.31;5010430;28;20208;-72
2021/12/16 05:47:37;;;;;;;12.15;5.60;;;;;;;0.81;82.68;95525.44;5029974;28;20197;-71
2021/12/16 05:50:08;;;;;;;6.50;3.55;;;;;;;0.68;83.31;95524.69;5033182;28;20289;-72
2021/12/16 05:52:35;;;;;;;9.90;4.97;;;;;;;0.66;83.47;95529.47;5033542;28;20234;-72
2021/12/16 05:55:02;;;;;;;16.80;7.40;;;;;;;0.68;83.50;95527.34;5033750;28;20208;-75
2021/12/16 05:57:29;;;;;;;6.68;3.95;;;;;;;0.73;83.22;95523.16;5018499;28;20209;-72
2021/12/16 05:59:56;;;;;;;10.80;3.65;;;;;;;0.62;83.30;95528.34;5015486;28;20267;-71
2021/12/16 06:02:23;;;;;;;8.30;4.32;;;;;;;0.68;83.23;95506.03;5014854;28;20208;-74
2021/12/16 06:04:50;;;;;;;9.55;5.13;;;;;;;0.68;83.07;95521.25;5019624;28;20295;-72
2021/12/16 06:07:19;;;;;;;10.48;4.63;;;;;;;0.73;83.10;95517.81;5027420;28;20197;-72
2021/12/16 06:09:46;;;;;;;9.77;5.03;;;;;;;0.74;83.08;95522.13;5033015;28;20227;-73
2021/12/16 06:12:14;;;;;;;10.25;4.72;;;;;;;0.76;82.28;95525.34;5033149;28;20200;-71
2021/12/16 06:14:54;;;;;;;13.80;6.65;;;;;;;0.76;82.45;95528.00;5032872;28;20295;-73
2021/12/16 06:28:38;;;;;;;9.57;5.25;;;;;;;0.78;82.43;95523.25;5027000;28;20314;-72
2021/12/16 06:31:05;;;;;;;11.57;6.35;;;;;;;0.80;82.26;95513.16;5032366;28;20663;-72
2021/12/16 06:33:32;;;;;;;11.52;6.07;;;;;;;0.80;81.98;95516.63;5032716;28;20213;-70
2021/12/16 06:36:00;;;;;;;8.32;4.78;;;;;;;0.76;81.65;95510.16;5024220;28;20200;-72
2021/12/16 06:38:28;;;;;;;3.97;2.83;;;;;;;0.84;81.96;95524.91;5029929;28;20208;-71
2021/12/16 06:40:56;;;;;;;9.75;5.35;;;;;;;0.85;81.92;95521.22;5015475;28;20774;-73
2021/12/16 06:43:23;;;;;;;8.48;4.40;;;;;;;0.78;82.07;95516.06;5030391;28;20280;-72
2021/12/16 06:45:53;;;;;;;5.70;3.00;;;;;;;0.81;82.26;95509.44;5031157;28;20303;-73
2021/12/16 06:48:25;;;;;;;7.45;3.85;;;;;;;0.81;81.96;95520.09;5030623;28;20655;-73
2021/12/16 06:50:56;;;;;;;6.20;4.20;;;;;;;0.74;81.89;95498.13;5030961;28;20307;-72
2021/12/16 06:53:28;;;;;;;9.20;5.68;;;;;;;0.73;81.98;95525.81;5023822;28;20208;-74
2021/12/16 06:56:05;;;;;;;9.20;4.35;;;;;;;0.79;82.01;95522.19;5025842;28;20200;-73
2021/12/16 06:58:37;;;;;;;8.70;4.07;;;;;;;0.82;81.68;95524.38;5030568;28;20192;-72
2021/12/16 07:01:13;;;;;;;6.25;3.65;;;;;;;0.91;81.08;95525.56;5030908;28;20276;-72
2021/12/16 07:03:48;;;;;;;7.30;4.15;;;;;;;0.98;80.66;95523.53;5030716;28;20193;-71
2021/12/16 07:06:19;;;;;;;5.00;3.05;;;;;;;1.01;79.88;95521.19;5003219;28;20311;-71
2021/12/16 07:08:47;;;;;;;6.88;3.17;;;;;;;1.12;79.94;95523.97;5029695;28;20196;-71
2021/12/16 07:11:16;;;;;;;4.13;2.95;;;;;;;1.18;79.72;95518.50;5029989;28;20235;-70
2021/12/16 07:13:55;;;;;;;8.02;4.50;;;;;;;1.10;78.88;95516.22;5031058;28;20212;-72
2021/12/16 07:16:22;;;;;;;6.63;4.65;;;;;;;1.16;79.22;95515.25;5030645;28;20209;-72
2021/12/16 07:18:49;;;;;;;4.30;2.25;;;;;;;1.34;78.93;95525.66;5030282;28;20205;-72
2021/12/16 07:21:16;;;;;;;5.88;3.10;;;;;;;1.43;78.27;95524.16;5020579;28;20217;-72
2021/12/16 07:23:43;;;;;;;7.80;3.85;;;;;;;1.41;77.58;95526.25;5027243;28;20263;-73
2021/12/16 07:26:10;;;;;;;6.15;3.80;;;;;;;1.41;78.14;95523.59;5029499;28;20212;-71
2021/12/16 07:28:38;;;;;;;3.92;2.60;;;;;;;1.53;77.15;95530.66;5017817;28;20282;-72
2021/12/16 07:31:05;;;;;;;5.25;2.42;;;;;;;1.51;77.19;95524.75;5030235;28;20224;-72
2021/12/16 07:33:32;;;;;;;4.43;2.75;;;;;;;1.66;77.21;95527.59;5030030;28;20200;-71
2021/12/16 07:36:00;;;;;;;4.80;2.78;;;;;;;1.67;76.57;95529.22;5022145;28;20192;-72
2021/12/16 07:38:27;;;;;;;6.68;3.28;;;;;;;1.80;76.60;95526.16;5027196;28;20200;-73
2021/12/16 07:40:56;;;;;;;5.00;2.67;;;;;;;1.74;76.20;95527.19;4974119;28;1193307;-72
2021/12/16 07:43:41;;;;;;;4.93;2.67;;;;;;;1.76;76.24;95528.56;5029666;28;20200;-71
2021/12/16 07:46:11;;;;;;;4.50;2.58;;;;;;;1.78;75.53;95525.59;5031013;28;20279;-71
2021/12/16 07:48:38;;;;;;;3.47;2.38;;;;;;;1.70;74.84;95510.03;5031173;28;20204;-71
2021/12/16 07:51:07;;;;;;;3.63;2.42;;;;;;;1.89;74.92;95524.69;5030603;28;20286;-72
2021/12/16 07:53:35;;;;;;;3.97;2.90;;;;;;;1.87;74.46;95529.47;5030860;28;20200;-73
2021/12/16 07:56:02;;;;;;;5.20;3.33;;;;;;;1.91;74.85;95527.94;5030887;28;20208;-72
2021/12/16 07:58:29;;;;;;;6.25;3.63;;;;;;;1.88;74.44;95528.41;5030744;28;20614;-72
2021/12/16 08:00:56;;;;;;;4.00;2.60;;;;;;;1.83;74.68;95528.34;5029886;28;20250;-72
2021/12/16 08:03:33;;;;;;;3.47;2.05;;;;;;;1.95;74.44;95531.69;5030330;28;20266;-71
2021/12/16 08:06:00;;;;;;;3.88;2.35;;;;;;;1.93;74.47;95531.13;5030043;28;20714;-72
2021/12/16 08:08:27;;;;;;;3.10;1.90;;;;;;;2.09;74.45;95540.13;5018497;28;20283;-72
2021/12/16 08:10:55;;;;;;;5.88;3.00;;;;;;;1.98;74.67;95536.53;5029175;28;20290;-72
2021/12/16 08:13:22;;;;;;;4.40;2.15;;;;;;;2.04;74.72;95535.53;5018678;28;20209;-71
2021/12/16 08:15:49;;;;;;;4.28;2.33;;;;;;;1.84;75.10;95537.16;5029322;28;20224;-72
2021/12/16 08:18:16;;;;;;;4.45;2.80;;;;;;;1.95;75.21;95541.56;5030146;28;20200;-71
2021/12/16 08:20:45;;;;;;;4.90;2.60;;;;;;;2.07;75.00;95542.22;5029907;28;20250;-71
2021/12/16 08:23:13;;;;;;;4.00;2.15;;;;;;;2.07;74.99;95540.34;5030520;28;20205;-71
2021/12/16 08:25:40;;;;;;;3.75;2.80;;;;;;;2.03;74.91;95533.94;5024239;28;20209;-70
2021/12/16 08:28:08;;;;;;;2.85;2.30;;;;;;;2.09;74.47;95522.22;5024276;28;20240;-72
2021/12/16 08:30:39;;;;;;;5.15;2.95;;;;;;;2.25;74.04;95530.38;5004288;28;20228;-71
2021/12/16 08:33:09;;;;;;;3.10;1.90;;;;;;;2.34;74.10;95528.84;5030051;28;20338;-72
2021/12/16 08:35:40;;;;;;;3.97;2.20;;;;;;;2.28;73.92;95529.88;5024273;28;20219;-71
2021/12/16 08:38:09;;;;;;;6.90;3.10;;;;;;;2.39;74.46;95531.59;5013286;28;20209;-71
2021/12/16 08:40:36;;;;;;;4.63;2.70;;;;;;;2.21;74.00;95530.06;5017043;28;20232;-70
2021/12/16 08:43:03;;;;;;;3.55;2.15;;;;;;;2.09;73.94;95522.22;5026743;28;20201;-72
2021/12/16 08:45:33;;;;;;;3.85;2.80;;;;;;;2.20;73.94;95533.00;5030258;28;20643;-71
2021/12/16 08:48:02;;;;;;;5.50;2.80;;;;;;;2.33;74.06;95516.53;5023915;28;20686;-72
2021/12/16 08:50:33;;;;;;;8.07;2.90;;;;;;;2.40;73.32;95522.50;5030499;28;20273;-71
2021/12/16 08:53:00;;;;;;;3.60;2.08;;;;;;;2.34;73.43;95526.19;5030375;28;20192;-73
2021/12/16 08:55:32;;;;;;;3.85;2.25;;;;;;;2.56;73.25;95524.25;5030975;28;20232;-71
2021/12/16 08:57:59;;;;;;;4.07;2.60;;;;;;;2.32;72.99;95525.66;5031169;28;20283;-74
2021/12/16 09:00:29;;;;;;;3.70;2.30;;;;;;;2.44;72.90;95515.59;5025277;28;20252;-71
2021/12/16 09:02:56;;;;;;;3.53;2.88;;;;;;;2.44;72.84;95513.72;5015605;28;20662;-71
2021/12/16 09:05:25;;;;;;;3.72;2.45;;;;;;;2.60;73.00;95506.63;5030616;28;20204;-71
2021/12/16 09:07:53;;;;;;;4.32;2.90;;;;;;;2.47;72.99;95507.84;5016818;28;20638;-71
2021/12/16 09:10:25;;;;;;;4.95;2.45;;;;;;;2.51;72.33;95497.47;5029981;28;20301;-70
2021/12/16 09:13:02;;;;;;;4.30;2.67;;;;;;;2.65;72.54;95504.00;5005294;28;20270;-70
2021/12/16 09:15:32;;;;;;;3.97;2.75;;;;;;;2.53;72.51;95506.03;5030291;28;20227;-71
2021/12/16 09:18:00;;;;;;;3.50;1.95;;;;;;;2.58;72.18;95495.41;5030000;28;20193;-71
2021/12/16 09:20:27;;;;;;;4.65;2.75;;;;;;;2.55;72.25;95487.88;5016350;28;20216;-70
2021/12/16 09:22:54;;;;;;;2.20;1.85;;;;;;;2.64;71.69;95497.03;5029626;28;20617;-72
2021/12/16 09:25:21;;;;;;;4.10;2.25;;;;;;;2.80;71.43;95493.41;5029951;28;20200;-72
2021/12/16 09:27:49;;;;;;;3.40;2.00;;;;;;;2.80;71.71;95477.34;5029959;28;20201;-70
2021/12/16 09:30:21;;;;;;;4.75;2.45;;;;;;;2.72;71.12;95483.19;5029568;28;20232;-70
2021/12/16 09:32:51;;;;;;;6.80;3.00;;;;;;;2.54;72.13;95491.59;5029760;28;20719;-72
2021/12/16 09:35:18;;;;;;;3.90;1.92;;;;;;;2.61;71.48;95481.47;4996932;28;20201;-70
2021/12/16 09:37:46;;;;;;;3.55;1.70;;;;;;;2.68;71.84;95490.13;5025518;28;20201;-70
2021/12/16 09:40:16;;;;;;;3.45;2.35;;;;;;;2.56;72.49;95488.69;5023109;28;20785;-70
2021/12/16 09:42:43;;;;;;;4.57;2.58;;;;;;;2.69;72.70;95478.34;5013898;28;20597;-71
2021/12/16 09:45:12;;;;;;;3.60;1.90;;;;;;;2.69;72.94;95464.97;5013902;28;20204;-70
2021/12/16 09:47:43;;;;;;;2.55;1.63;;;;;;;2.55;73.52;95481.72;5027653;28;20731;-73
2021/12/16 09:50:13;;;;;;;6.30;3.35;;;;;;;2.61;74.45;95476.13;5032759;28;20250;-71
2021/12/16 09:52:40;;;;;;;5.82;3.03;;;;;;;2.25;75.47;95482.28;5033063;28;20197;-71
2021/12/16 09:55:08;;;;;;;6.18;4.45;;;;;;;2.32;75.35;95462.31;5032805;28;20626;-72
2021/12/16 09:57:36;;;;;;;5.15;2.85;;;;;;;2.40;76.02;95477.06;5032989;28;20617;-70
2021/12/16 10:00:05;;;;;;;8.50;3.95;;;;;;;2.27;75.75;95464.13;5032872;28;20216;-72
2021/12/16 10:02:32;;;;;;;5.70;3.97;;;;;;;2.14;76.33;95478.72;5033389;28;20204;-72
2021/12/16 10:05:00;;;;;;;5.07;3.22;;;;;;;2.18;76.06;95471.00;5033815;28;20196;-72
2021/12/16 10:07:33;;;;;;;4.35;3.30;;;;;;;2.32;76.02;95464.16;5033231;28;20212;-72
2021/12/16 10:10:00;;;;;;;7.18;3.58;;;;;;;2.42;76.13;95469.59;5031991;28;20283;-72
2021/12/16 10:12:33;;;;;;;3.78;3.08;;;;;;;2.47;76.23;95464.25;5031224;28;20556;-71
2021/12/16 10:15:05;;;;;;;4.88;2.63;;;;;;;2.36;76.61;95459.91;5020085;28;20221;-72
2021/12/16 10:17:35;;;;;;;6.20;3.45;;;;;;;2.29;76.25;95452.13;5013904;28;20204;-77
2021/12/16 10:20:11;;;;;;;6.20;2.80;;;;;;;2.30;76.61;95436.88;5032591;28;20554;-71
2021/12/16 10:22:42;;;;;;;11.02;4.60;;;;;;;2.31;77.32;95449.19;4993484;28;20209;-72
2021/12/16 10:25:39;;;;;;;5.18;3.80;;;;;;;2.38;77.35;95428.38;5020610;28;20715;-73
2021/12/16 10:28:09;;;;;;;5.75;3.38;;;;;;;2.47;76.51;95432.97;4996322;28;20209;-71
2021/12/16 10:30:45;;;;;;;4.65;3.17;;;;;;;2.36;77.30;95427.81;5029214;28;20294;-71
2021/12/16 10:33:18;;;;;;;5.70;3.13;;;;;;;2.29;77.44;95422.72;5032201;28;20192;-71
2021/12/16 10:35:48;;;;;;;7.63;2.67;;;;;;;2.43;76.64;95426.56;5017931;28;20262;-72
2021/12/16 10:38:17;;;;;;;4.68;2.95;;;;;;;2.58;76.51;95417.03;5013597;28;20197;-72
2021/12/16 10:40:46;;;;;;;4.75;2.17;;;;;;;2.70;75.95;95421.13;5017702;28;20312;-72
2021/12/16 10:43:17;;;;;;;6.75;3.15;;;;;;;2.60;76.48;95415.69;5027865;28;20250;-71
2021/12/16 10:45:49;;;;;;;6.40;3.50;;;;;;;2.51;77.16;95411.91;5031073;28;20192;-71
2021/12/16 10:48:24;;;;;;;3.33;2.35;;;;;;;2.44;77.70;95411.31;5030115;28;20267;-73
2021/12/16 10:51:11;;;;;;;8.57;3.50;;;;;;;2.47;77.07;95408.13;5027525;28;20265;-72
2021/12/16 10:54:03;;;;;;;4.90;2.85;;;;;;;2.36;77.60;95420.59;5011121;28;20662;-73
2021/12/16 10:56:34;;;;;;;5.63;3.83;;;;;;;2.18;78.53;95412.19;5032013;28;20192;-72
2021/12/16 10:59:05;;;;;;;7.60;4.55;;;;;;;2.27;78.70;95410.66;5031595;28;20221;-72
2021/12/16 11:01:52;;;;;;;7.45;3.80;;;;;;;2.26;78.44;95414.38;5031629;28;20640;-72
2021/12/16 11:04:24;;;;;;;5.60;3.53;;;;;;;2.23;78.72;95409.56;5026612;28;20247;-71
2021/12/16 11:06:58;;;;;;;4.22;2.55;;;;;;;2.22;78.74;95408.75;5011928;28;20197;-73
2021/12/16 11:09:36;;;;;;;5.10;2.78;;;;;;;2.20;78.54;95405.50;5010683;28;20252;-71
2021/12/16 11:12:10;;;;;;;5.18;2.90;;;;;;;2.24;78.23;95405.81;5008986;28;20208;-72
2021/12/16 11:14:39;;;;;;;4.53;3.13;;;;;;;2.23;77.97;95404.22;5011889;28;20220;-70
2021/12/16 11:17:09;;;;;;;7.60;3.03;;;;;;;2.24;78.70;95395.13;5009971;28;20270;-70
2021/12/16 11:19:45;;;;;;;5.75;3.40;;;;;;;2.25;78.70;95397.53;5020506;28;20207;-72
2021/12/16 11:22:17;;;;;;;4.68;3.08;;;;;;;2.37;77.84;95405.38;5018413;28;20611;-75
2021/12/16 11:24:45;;;;;;;9.00;4.13;;;;;;;2.47;77.58;95402.75;5029112;28;20258;-74
2021/12/16 11:27:28;;;;;;;3.63;2.05;;;;;;;2.52;77.25;95402.81;5017877;28;20208;-72
2021/12/16 11:29:56;;;;;;;5.10;2.97;;;;;;;2.57;77.21;95400.19;5015833;28;20255;-72
2021/12/16 11:32:42;;;;;;;10.50;4.18;;;;;;;2.57;76.94;95400.19;5031568;28;20285;-72
2021/12/16 11:35:36;;;;;;;5.60;3.40;;;;;;;2.35;77.63;95396.81;5023989;28;20639;-74
2021/12/16 11:38:13;;;;;;;4.38;3.20;;;;;;;2.14;78.33;95402.00;5026761;28;20196;-71
2021/12/16 11:40:55;;;;;;;5.68;3.50;;;;;;;2.21;78.56;95404.47;5017390;28;20259;-77
2021/12/16 11:43:33;;;;;;;5.15;3.25;;;;;;;2.22;78.48;95405.25;5029213;28;20604;-73
2021/12/16 11:46:00;;;;;;;7.75;3.95;;;;;;;2.05;78.35;95416.09;5030993;28;20192;-72
2021/12/16 11:48:31;;;;;;;6.30;3.15;;;;;;;2.21;78.46;95417.00;5030776;28;20203;-78
2021/12/16 11:51:05;;;;;;;4.85;2.80;;;;;;;2.22;78.47;95399.91;5017319;28;20241;-73
2021/12/16 11:53:40;;;;;;;5.43;3.20;;;;;;;2.17;79.11;95405.25;5030740;28;20202;-74
2021/12/16 11:56:10;;;;;;;3.40;2.45;;;;;;;2.34;77.94;95406.69;5030359;28;20674;-72
2021/12/16 11:58:37;;;;;;;6.88;3.88;;;;;;;2.23;78.12;95398.84;5030235;28;20834;-73
2021/12/16 12:01:14;;;;;;;6.45;2.47;;;;;;;2.19;78.22;95395.09;5030141;28;20608;-71
2021/12/16 12:03:41;;;;;;;7.03;3.17;;;;;;;2.24;77.99;95389.78;5031109;28;20598;-71
2021/12/16 12:06:20;;;;;;;4.65;2.72;;;;;;;2.32;77.58;95386.66;5028742;28;20621;-71
2021/12/16 12:08:50;;;;;;;8.30;3.47;;;;;;;2.18;77.97;95385.47;5030239;28;20246;-73
2021/12/16 12:11:20;;;;;;;7.65;4.05;;;;;;;2.13;78.42;95387.03;5030218;28;20227;-71
2021/12/16 12:13:50;;;;;;;6.53;3.70;;;;;;;2.10;78.64;95408.91;5029959;28;20314;-71
2021/12/16 12:16:20;;;;;;;6.63;2.97;;;;;;;2.10;79.22;95390.22;5030962;28;20258;-74
2021/12/16 12:18:49;;;;;;;6.30;3.55;;;;;;;2.25;78.43;95402.09;5031025;28;20251;-70
2021/12/16 12:21:24;;;;;;;4.20;2.63;;;;;;;2.17;78.63;95394.56;5030596;28;20201;-71
2021/12/16 12:23:55;;;;;;;9.93;4.00;;;;;;;2.10;78.82;95392.88;5013744;28;20205;-71
2021/12/16 12:26:24;;;;;;;10.60;3.35;;;;;;;2.11;79.04;95396.38;5022445;28;20200;-71
2021/12/16 12:28:53;;;;;;;5.32;2.90;;;;;;;2.04;78.73;95401.94;5030452;28;20208;-72
2021/12/16 12:31:23;;;;;;;6.97;4.25;;;;;;;2.08;78.89;95396.88;5030282;28;20595;-70
2021/12/16 12:33:51;;;;;;;6.72;3.75;;;;;;;2.05;78.74;95403.53;5017682;28;20212;-72
2021/12/16 12:36:19;;;;;;;4.53;2.08;;;;;;;2.13;78.69;95400.41;5013579;28;20533;-70
2021/12/16 12:38:47;;;;;;;6.20;2.90;;;;;;;2.18;78.57;95404.19;4997300;28;20695;-70
2021/12/16 12:41:16;;;;;;;6.22;3.08;;;;;;;2.20;78.07;95407.38;5011011;28;20782;-71
2021/12/16 12:43:44;;;;;;;5.05;2.22;;;;;;;2.24;77.23;95405.81;5022594;28;20267;-74
2021/12/16 12:46:13;;;;;;;7.57;3.85;;;;;;;2.22;77.50;95413.28;5025167;28;20215;-72
2021/12/16 12:48:42;;;;;;;4.95;3.08;;;;;;;2.18;77.47;95401.50;5024749;28;20208;-73
2021/12/16 12:51:10;;;;;;;6.13;2.80;;;;;;;2.17;77.30;95415.94;5030147;28;20224;-72
2021/12/16 12:53:46;;;;;;;5.80;3.15;;;;;;;2.21;77.31;95396.44;5029800;28;20204;-71
2021/12/16 12:56:18;;;;;;;4.82;2.85;;;;;;;2.34;77.43;95405.88;5030324;28;20227;-71
2021/12/16 12:58:53;;;;;;;6.60;3.67;;;;;;;2.28;76.83;95385.53;5030490;28;20220;-72
2021/12/16 13:01:34;;;;;;;4.18;2.60;;;;;;;2.19;77.57;95392.44;5023784;28;20259;-72
2021/12/16 13:04:05;;;;;;;8.57;3.50;;;;;;;2.29;77.69;95387.16;5024885;28;20240;-70
2021/12/16 13:06:46;;;;;;;7.57;4.18;;;;;;;2.35;77.58;95394.13;5030601;28;20189;-70
2021/12/16 13:09:27;;;;;;;7.18;2.97;;;;;;;2.23;77.29;95386.31;5031437;28;20201;-70
2021/12/16 13:11:56;;;;;;;10.68;5.72;;;;;;;2.42;77.56;95402.75;5020186;28;20491;-69
2021/12/16 13:14:41;;;;;;;8.43;3.83;;;;;;;2.26;77.08;95403.69;5012631;28;20220;-70
2021/12/16 13:17:41;;;;;;;9.68;4.32;;;;;;;2.29;77.51;95398.66;5015687;28;20218;-72
2021/12/16 13:26:19;;;;;;;6.68;2.70;;;;;;;2.18;78.11;95406.84;4952449;28;20230;-71
2021/12/16 13:29:01;;;;;;;8.13;3.92;;;;;;;2.05;77.06;95397.41;5005156;28;20209;-80
2021/12/16 13:31:35;;;;;;;7.88;4.55;;;;;;;2.10;77.22;95398.22;5014562;28;20213;-72
2021/12/16 13:34:03;;;;;;;8.88;3.70;;;;;;;2.05;77.81;95392.84;5012676;28;20189;-71
2021/12/16 13:36:42;;;;;;;5.13;3.20;;;;;;;2.07;77.51;95401.41;5014731;28;20722;-73
2021/12/16 13:39:11;;;;;;;6.90;3.88;;;;;;;2.02;78.04;95409.41;5013450;28;20189;-72
2021/12/16 13:41:53;;;;;;;6.22;3.70;;;;;;;1.92;78.27;95398.59;5012957;28;20267;-72
2021/12/16 13:44:38;;;;;;;8.52;4.53;;;;;;;1.99;78.24;95399.22;5011058;28;20290;-71
2021/12/16 13:47:13;;;;;;;6.43;3.78;;;;;;;2.09;78.11;95409.97;5012031;28;20193;-70